Tropical Cyclones
[Index]
Main Index Home Page Stock Weather Photos Extreme Storms Discussion Storm News and Storm Chasing Reports Tropical Cyclones / Hurricanes / Typhoons Weather Data and Links Wild Fires / Bushfires Weather Observation Techniques Weather Picture Catalogue Tornado Pictures and Reports Stock Video Footage and DVDs for sale
Season 2006-2007 Tropical Cyclone HUMBA Track Map
Season 2006-2007 Summaries: [BoM-AU] [JTWC-AU] [JTWC-SIO] [JTWC-SPAC] [JTWC-SH]
<<- Previous TC | JTWC 2006-2007 Season | Next TC ->>

click for intensity scale information  Lat/long Grid: Show Hide

 Date Labels: Show Hide

Joint Typhoon Warning Centre Cyclone Data

Name: HUMBA

20 Feb 2007 18:00 UTC to 01 Mar 2007 06:00 UTC

    date/time    lat    long     hPa   cat  kts
2007-02-20 18    9.9    91.5    1004         25          
2007-02-21 00   10.3    90.3    1004         25          
2007-02-21 06   10.5    89.1    1004         25          
2007-02-21 12   10.8    87.9    1000         30          
2007-02-21 18   10.9    86.7    1000         30          
2007-02-22 00   11.1    85.6    1000         30          
2007-02-22 06   11.3    84.6    1000         30          
2007-02-22 12   11.6    83.9     997         35          
2007-02-22 18   11.8    83.3     993    1    40          
2007-02-23 00   12.3    82.6     985    1    50          
2007-02-23 06   13.0    81.8     985    1    50          
2007-02-23 12   13.7    81.1     984    2    55          
2007-02-23 12   13.7    81.1     984    2    55          
2007-02-23 18   14.4    80.4     978    2    60          
2007-02-23 18   14.4    80.4     978    2    60          
2007-02-24 00   15.1    79.8     976    2    65          
2007-02-24 00   15.1    79.8     976    2    65          
2007-02-24 06   15.8    79.6     976    2    65          
2007-02-24 06   15.8    79.6     976    2    65          
2007-02-24 12   16.6    79.5     976    2    65          
2007-02-24 12   16.6    79.5     976    2    65          
2007-02-24 18   17.5    79.5     970    2    70          
2007-02-24 18   17.5    79.5     970    2    70          
2007-02-24 18   17.5    79.5     970    2    70          
2007-02-25 00   18.4    79.2     967    3    75          
2007-02-25 00   18.4    79.2     967    3    75          
2007-02-25 00   18.4    79.2     967    3    75          
2007-02-25 06   19.3    78.8     963    3    80          
2007-02-25 06   19.3    78.8     963    3    80          
2007-02-25 06   19.3    78.8     963    3    80          
2007-02-25 12   20.1    78.2     963    3    80          
2007-02-25 12   20.1    78.2     963    3    80          
2007-02-25 12   20.1    78.2     963    3    80          
2007-02-25 18   20.9    77.5     970    2    70          
2007-02-25 18   20.9    77.5     970    2    70          
2007-02-25 18   20.9    77.5     970    2    70          
2007-02-26 00   21.8    77.4     978    2    60          
2007-02-26 06   22.7    77.5     982    2    55          
2007-02-26 12   23.6    77.7     982    2    55          
2007-02-26 18   24.5    78.0     987    1    50          
2007-02-27 00   25.2    78.6     994    1    40          
2007-02-27 06   26.3    78.9     994    1    40          
2007-02-27 12   27.9    79.1     994    1    40          
2007-02-27 18   29.2    79.0     994    1    40          
2007-02-28 00   29.8    78.5    1002         25          
2007-02-28 06   29.7    78.0    1002         25          
2007-02-28 12   29.5    78.5    1002         25          
2007-02-28 18   29.6    79.0    1002         25          
2007-03-01 00   29.2    79.3    1002         25          
2007-03-01 06   28.9    79.7    1007         20          
Winds are 1-min average.

Tropical cyclone tracks developed by Michael Bath using data from the Joint Typhoon Warning Centre Best Tracks and Google Maps.


[Australian Severe Weather index] [Copyright Notice] [Email Contacts] [Search This Site] [Privacy Policy]
Document: tropical_cyclone_humba.htm Updated: 28 June 2017